Date,TemperatureHighF,TemperatureAvgF,TemperatureLowF,DewpointHighF,DewpointAvgF,DewpointLowF,HumidityHigh,HumidityAvg,HumidityLow,PressureMaxIn,PressureMinIn,WindSpeedMaxMPH,WindSpeedAvgMPH,GustSpeedMaxMPH,PrecipitationSumIn
2012-12-1,76.8,68.0,0.0,63.0,54.9,0.0,65,49,42,30.21,30.15,10,7,13,0.00
2012-12-2,78.3,74.7,72.3,64.2,62.2,58.7,66,58,48,30.24,30.15,12,7,17,0.00
2012-12-3,77.2,74.1,72.5,64.1,57.6,48.4,67,49,32,30.27,30.18,10,6,13,0.00
2012-12-4,75.6,59.0,0.0,62.2,46.6,0.0,63,41,37,30.24,30.15,10,6,13,0.00
2012-12-5,79.2,69.0,0.0,64.5,55.3,0.0,65,48,38,30.15,30.03,9,4,10,0.00
2012-12-6,80.1,72.5,0.0,68.5,62.1,0.0,81,61,47,30.03,29.94,8,3,13,0.00
2012-12-7,81.5,75.9,73.0,68.5,66.6,64.4,77,67,49,30.00,29.91,8,3,11,0.00
2012-12-8,80.2,67.2,0.0,74.6,62.6,0.0,93,71,68,30.06,29.97,8,4,8,0.00
2012-12-9,84.0,77.7,72.7,77.0,74.6,72.0,97,88,74,30.12,30.00,6,2,7,0.00
2012-12-10,84.2,78.8,74.8,77.7,75.8,73.6,96,89,74,30.03,29.94,8,4,10,0.00
2012-12-11,83.8,67.8,0.0,82.2,66.4,0.0,98,81,86,30.06,29.94,8,3,11,3.30
2012-12-12,82.8,77.7,0.0,75.9,73.3,0.0,94,83,67,30.12,30.03,8,3,10,0.00
2012-12-13,79.9,68.3,0.0,74.9,65.7,0.0,97,83,74,30.12,30.03,10,3,10,0.00
2012-12-14,76.6,70.7,65.1,70.6,64.7,56.6,98,79,41,30.15,30.06,10,5,13,2.50
2012-12-15,76.6,58.4,0.0,64.4,49.3,0.0,66,47,52,30.12,30.03,10,6,11,0.00
2012-12-16,82.0,72.2,0.0,66.9,61.8,0.0,72,59,49,30.06,29.97,8,3,10,0.00
2012-12-17,81.0,24.5,0.0,68.6,21.8,0.0,90,23,59,29.97,29.88,6,1,6,0.00
2012-12-18,82.6,67.1,0.0,72.0,58.6,0.0,97,62,39,30.00,29.91,10,2,10,0.00
2012-12-19,79.5,72.9,65.1,68.2,61.6,55.4,91,63,41,30.09,30.00,5,3,8,0.00
2012-12-20,82.2,75.9,71.4,66.4,62.3,58.4,79,56,40,30.09,29.97,7,3,7,0.00
2012-12-21,71.6,65.3,54.5,70.2,50.8,36.4,97,56,24,30.18,29.94,17,8,20,0.00
2012-12-22,63.1,55.6,47.7,40.4,31.0,25.0,50,29,16,30.27,30.18,11,6,13,0.00
2012-12-23,71.6,62.7,52.7,52.5,42.5,30.1,50,37,28,30.24,30.15,7,3,11,0.00
2012-12-24,76.8,68.8,61.5,56.4,53.4,48.1,67,50,37,30.15,30.00,6,2,8,0.00
2012-12-25,77.7,68.4,63.0,63.6,58.4,55.7,84,65,41,30.06,29.97,6,1,9,0.00
2012-12-26,82.6,76.3,65.5,72.4,66.1,62.4,93,67,45,29.97,29.85,11,5,11,0.00
2012-12-27,69.6,62.7,56.1,62.2,50.0,44.0,95,58,32,30.09,29.97,9,4,10,0.00
2012-12-28,76.1,69.1,57.6,71.9,64.4,46.1,96,81,53,30.09,29.97,8,3,8,0.00
2012-12-29,81.7,75.4,64.2,74.8,69.8,48.4,96,80,47,30.09,29.94,12,4,15,0.00
2012-12-30,67.8,62.1,52.5,54.8,50.5,46.0,75,59,46,30.27,30.09,11,7,14,0.00
2012-12-31,74.5,70.3,66.9,57.2,54.7,51.3,60,49,40,30.30,30.18,12,7,17,0.00